sensor_id;sensor_type;location;lat;lon;timestamp;P1;durP1;ratioP1;P2;durP2;ratioP2
47455;SDS011;33202;48.512;-2.780;2024-03-25T00:00:06;14.10;;;5.45;;
47455;SDS011;33202;48.512;-2.780;2024-03-25T00:02:35;11.90;;;4.57;;
47455;SDS011;33202;48.512;-2.780;2024-03-25T00:05:01;21.95;;;9.02;;
47455;SDS011;33202;48.512;-2.780;2024-03-25T00:07:27;17.67;;;7.63;;
47455;SDS011;33202;48.512;-2.780;2024-03-25T00:09:53;20.73;;;9.02;;
47455;SDS011;33202;48.512;-2.780;2024-03-25T00:12:20;19.05;;;7.93;;
47455;SDS011;33202;48.512;-2.780;2024-03-25T00:14:46;16.02;;;6.35;;
47455;SDS011;33202;48.512;-2.780;2024-03-25T00:17:12;16.75;;;5.18;;
47455;SDS011;33202;48.512;-2.780;2024-03-25T00:19:39;15.48;;;5.38;;
47455;SDS011;33202;48.512;-2.780;2024-03-25T00:22:05;13.68;;;5.22;;
47455;SDS011;33202;48.512;-2.780;2024-03-25T00:24:31;15.95;;;4.72;;
47455;SDS011;33202;48.512;-2.780;2024-03-25T00:26:57;16.40;;;5.28;;
47455;SDS011;33202;48.512;-2.780;2024-03-25T00:29:23;10.73;;;4.80;;
47455;SDS011;33202;48.512;-2.780;2024-03-25T00:31:49;15.13;;;5.10;;
47455;SDS011;33202;48.512;-2.780;2024-03-25T00:34:15;8.40;;;3.70;;
47455;SDS011;33202;48.512;-2.780;2024-03-25T00:36:42;12.93;;;4.68;;
47455;SDS011;33202;48.512;-2.780;2024-03-25T00:39:08;10.68;;;4.95;;
47455;SDS011;33202;48.512;-2.780;2024-03-25T00:41:35;9.13;;;4.57;;
47455;SDS011;33202;48.512;-2.780;2024-03-25T00:44:01;12.43;;;4.55;;
47455;SDS011;33202;48.512;-2.780;2024-03-25T00:46:27;8.00;;;4.00;;
47455;SDS011;33202;48.512;-2.780;2024-03-25T00:48:53;11.73;;;5.07;;
47455;SDS011;33202;48.512;-2.780;2024-03-25T00:51:19;13.70;;;4.88;;
47455;SDS011;33202;48.512;-2.780;2024-03-25T00:53:45;13.35;;;5.32;;
47455;SDS011;33202;48.512;-2.780;2024-03-25T00:56:12;18.37;;;6.13;;
47455;SDS011;33202;48.512;-2.780;2024-03-25T00:58:38;13.52;;;4.88;;
47455;SDS011;33202;48.512;-2.780;2024-03-25T01:01:04;14.27;;;4.75;;
47455;SDS011;33202;48.512;-2.780;2024-03-25T01:03:30;9.82;;;3.38;;
47455;SDS011;33202;48.512;-2.780;2024-03-25T01:05:56;8.25;;;2.72;;
47455;SDS011;33202;48.512;-2.780;2024-03-25T01:08:22;7.90;;;2.97;;
47455;SDS011;33202;48.512;-2.780;2024-03-25T01:10:48;8.50;;;2.33;;
47455;SDS011;33202;48.512;-2.780;2024-03-25T01:13:14;6.70;;;1.75;;
47455;SDS011;33202;48.512;-2.780;2024-03-25T01:15:40;7.60;;;1.77;;
47455;SDS011;33202;48.512;-2.780;2024-03-25T01:18:07;9.77;;;2.10;;
47455;SDS011;33202;48.512;-2.780;2024-03-25T01:20:33;11.05;;;2.35;;
47455;SDS011;33202;48.512;-2.780;2024-03-25T01:22:59;7.00;;;1.77;;
47455;SDS011;33202;48.512;-2.780;2024-03-25T01:25:25;7.70;;;1.92;;
47455;SDS011;33202;48.512;-2.780;2024-03-25T01:27:51;6.97;;;2.20;;
47455;SDS011;33202;48.512;-2.780;2024-03-25T01:30:17;10.52;;;2.20;;
47455;SDS011;33202;48.512;-2.780;2024-03-25T01:32:44;7.40;;;1.83;;
47455;SDS011;33202;48.512;-2.780;2024-03-25T01:35:14;5.80;;;1.70;;
47455;SDS011;33202;48.512;-2.780;2024-03-25T01:37:40;10.50;;;1.92;;
47455;SDS011;33202;48.512;-2.780;2024-03-25T01:40:07;3.95;;;1.33;;
47455;SDS011;33202;48.512;-2.780;2024-03-25T01:42:35;6.38;;;1.63;;
47455;SDS011;33202;48.512;-2.780;2024-03-25T01:45:01;8.70;;;1.63;;
47455;SDS011;33202;48.512;-2.780;2024-03-25T01:47:28;5.30;;;1.83;;
47455;SDS011;33202;48.512;-2.780;2024-03-25T01:49:56;7.75;;;2.25;;
47455;SDS011;33202;48.512;-2.780;2024-03-25T01:52:22;8.57;;;2.60;;
47455;SDS011;33202;48.512;-2.780;2024-03-25T01:54:50;6.32;;;1.60;;
47455;SDS011;33202;48.512;-2.780;2024-03-25T01:57:16;8.30;;;1.65;;
47455;SDS011;33202;48.512;-2.780;2024-03-25T01:59:42;5.68;;;1.73;;
47455;SDS011;33202;48.512;-2.780;2024-03-25T02:02:08;4.72;;;1.80;;
47455;SDS011;33202;48.512;-2.780;2024-03-25T02:04:36;6.50;;;2.03;;
47455;SDS011;33202;48.512;-2.780;2024-03-25T02:07:02;8.93;;;1.92;;
47455;SDS011;33202;48.512;-2.780;2024-03-25T02:09:28;9.98;;;2.17;;
47455;SDS011;33202;48.512;-2.780;2024-03-25T02:11:54;8.40;;;1.77;;
47455;SDS011;33202;48.512;-2.780;2024-03-25T02:14:20;6.03;;;1.40;;
47455;SDS011;33202;48.512;-2.780;2024-03-25T02:16:46;6.15;;;1.90;;
47455;SDS011;33202;48.512;-2.780;2024-03-25T02:19:13;7.68;;;1.70;;
47455;SDS011;33202;48.512;-2.780;2024-03-25T02:21:39;6.80;;;1.67;;
47455;SDS011;33202;48.512;-2.780;2024-03-25T02:24:05;8.40;;;2.00;;
47455;SDS011;33202;48.512;-2.780;2024-03-25T02:28:59;6.55;;;1.70;;
47455;SDS011;33202;48.512;-2.780;2024-03-25T02:31:25;6.13;;;1.98;;
47455;SDS011;33202;48.512;-2.780;2024-03-25T02:33:51;6.15;;;1.70;;
47455;SDS011;33202;48.512;-2.780;2024-03-25T02:36:17;7.10;;;1.63;;
47455;SDS011;33202;48.512;-2.780;2024-03-25T02:38:43;6.18;;;1.90;;
47455;SDS011;33202;48.512;-2.780;2024-03-25T02:41:09;8.63;;;1.90;;
47455;SDS011;33202;48.512;-2.780;2024-03-25T02:43:35;8.52;;;1.73;;
47455;SDS011;33202;48.512;-2.780;2024-03-25T02:46:01;6.93;;;1.73;;
47455;SDS011;33202;48.512;-2.780;2024-03-25T02:48:27;7.50;;;2.60;;
47455;SDS011;33202;48.512;-2.780;2024-03-25T02:50:53;6.35;;;1.73;;
47455;SDS011;33202;48.512;-2.780;2024-03-25T02:53:19;7.90;;;1.65;;
47455;SDS011;33202;48.512;-2.780;2024-03-25T02:55:45;6.03;;;1.73;;
47455;SDS011;33202;48.512;-2.780;2024-03-25T02:58:11;6.43;;;1.70;;
47455;SDS011;33202;48.512;-2.780;2024-03-25T03:00:37;8.68;;;1.85;;
47455;SDS011;33202;48.512;-2.780;2024-03-25T03:03:03;7.75;;;1.60;;
47455;SDS011;33202;48.512;-2.780;2024-03-25T03:05:29;7.50;;;2.03;;
47455;SDS011;33202;48.512;-2.780;2024-03-25T03:07:55;9.52;;;2.38;;
47455;SDS011;33202;48.512;-2.780;2024-03-25T03:10:21;8.98;;;1.90;;
47455;SDS011;33202;48.512;-2.780;2024-03-25T03:12:47;5.38;;;1.60;;
47455;SDS011;33202;48.512;-2.780;2024-03-25T03:15:13;9.38;;;2.05;;
47455;SDS011;33202;48.512;-2.780;2024-03-25T03:17:40;6.87;;;2.30;;
47455;SDS011;33202;48.512;-2.780;2024-03-25T03:20:06;10.55;;;2.15;;
47455;SDS011;33202;48.512;-2.780;2024-03-25T03:22:32;5.97;;;2.00;;
47455;SDS011;33202;48.512;-2.780;2024-03-25T03:24:58;7.15;;;1.83;;
47455;SDS011;33202;48.512;-2.780;2024-03-25T03:27:24;5.57;;;2.03;;
47455;SDS011;33202;48.512;-2.780;2024-03-25T03:29:50;5.60;;;1.77;;
47455;SDS011;33202;48.512;-2.780;2024-03-25T03:32:16;5.65;;;1.67;;
47455;SDS011;33202;48.512;-2.780;2024-03-25T03:34:42;6.88;;;1.60;;
47455;SDS011;33202;48.512;-2.780;2024-03-25T03:37:08;5.88;;;1.73;;
47455;SDS011;33202;48.512;-2.780;2024-03-25T03:39:34;5.15;;;1.48;;
47455;SDS011;33202;48.512;-2.780;2024-03-25T03:42:00;6.50;;;2.00;;
47455;SDS011;33202;48.512;-2.780;2024-03-25T03:44:27;6.75;;;1.73;;
47455;SDS011;33202;48.512;-2.780;2024-03-25T03:46:53;8.48;;;2.10;;
47455;SDS011;33202;48.512;-2.780;2024-03-25T03:49:19;9.30;;;2.00;;
47455;SDS011;33202;48.512;-2.780;2024-03-25T03:51:45;9.65;;;1.90;;
47455;SDS011;33202;48.512;-2.780;2024-03-25T03:54:11;7.35;;;1.92;;
47455;SDS011;33202;48.512;-2.780;2024-03-25T03:56:37;6.22;;;2.10;;
47455;SDS011;33202;48.512;-2.780;2024-03-25T03:59:03;7.20;;;2.22;;
47455;SDS011;33202;48.512;-2.780;2024-03-25T04:01:29;6.28;;;2.00;;
47455;SDS011;33202;48.512;-2.780;2024-03-25T04:03:55;6.88;;;1.95;;
47455;SDS011;33202;48.512;-2.780;2024-03-25T04:06:21;8.82;;;1.90;;
47455;SDS011;33202;48.512;-2.780;2024-03-25T04:08:47;5.20;;;1.70;;
47455;SDS011;33202;48.512;-2.780;2024-03-25T04:11:14;6.53;;;1.85;;
47455;SDS011;33202;48.512;-2.780;2024-03-25T04:13:40;7.78;;;1.83;;
47455;SDS011;33202;48.512;-2.780;2024-03-25T04:16:06;7.13;;;1.88;;
47455;SDS011;33202;48.512;-2.780;2024-03-25T04:18:32;4.03;;;1.67;;
47455;SDS011;33202;48.512;-2.780;2024-03-25T04:20:59;8.13;;;1.90;;
47455;SDS011;33202;48.512;-2.780;2024-03-25T04:23:25;6.72;;;1.70;;
47455;SDS011;33202;48.512;-2.780;2024-03-25T04:25:51;10.50;;;2.50;;
47455;SDS011;33202;48.512;-2.780;2024-03-25T04:28:17;6.53;;;1.55;;
47455;SDS011;33202;48.512;-2.780;2024-03-25T04:30:43;5.97;;;1.88;;
47455;SDS011;33202;48.512;-2.780;2024-03-25T04:33:15;8.25;;;2.08;;
47455;SDS011;33202;48.512;-2.780;2024-03-25T04:35:41;9.95;;;1.98;;
47455;SDS011;33202;48.512;-2.780;2024-03-25T04:38:07;4.60;;;2.00;;
47455;SDS011;33202;48.512;-2.780;2024-03-25T04:40:34;9.23;;;2.20;;
47455;SDS011;33202;48.512;-2.780;2024-03-25T04:43:01;11.95;;;1.88;;
47455;SDS011;33202;48.512;-2.780;2024-03-25T04:45:27;5.27;;;1.93;;
47455;SDS011;33202;48.512;-2.780;2024-03-25T04:47:53;7.80;;;2.17;;
47455;SDS011;33202;48.512;-2.780;2024-03-25T04:50:20;7.85;;;2.33;;
47455;SDS011;33202;48.512;-2.780;2024-03-25T04:52:46;6.72;;;1.80;;
47455;SDS011;33202;48.512;-2.780;2024-03-25T04:55:12;6.55;;;2.20;;
47455;SDS011;33202;48.512;-2.780;2024-03-25T04:57:38;7.90;;;2.42;;
47455;SDS011;33202;48.512;-2.780;2024-03-25T05:00:04;6.22;;;2.20;;
47455;SDS011;33202;48.512;-2.780;2024-03-25T05:02:30;10.38;;;2.85;;
47455;SDS011;33202;48.512;-2.780;2024-03-25T05:04:56;5.70;;;1.90;;
47455;SDS011;33202;48.512;-2.780;2024-03-25T05:07:22;7.43;;;2.22;;
47455;SDS011;33202;48.512;-2.780;2024-03-25T05:09:48;10.52;;;2.42;;
47455;SDS011;33202;48.512;-2.780;2024-03-25T05:12:14;9.13;;;2.40;;
47455;SDS011;33202;48.512;-2.780;2024-03-25T05:14:40;6.50;;;1.85;;
47455;SDS011;33202;48.512;-2.780;2024-03-25T05:17:06;6.18;;;1.80;;
47455;SDS011;33202;48.512;-2.780;2024-03-25T05:22:00;9.18;;;2.25;;
47455;SDS011;33202;48.512;-2.780;2024-03-25T05:24:26;8.02;;;2.10;;
47455;SDS011;33202;48.512;-2.780;2024-03-25T05:26:53;5.90;;;1.88;;
47455;SDS011;33202;48.512;-2.780;2024-03-25T05:29:19;7.65;;;2.58;;
47455;SDS011;33202;48.512;-2.780;2024-03-25T05:31:55;9.05;;;2.72;;
47455;SDS011;33202;48.512;-2.780;2024-03-25T05:34:21;9.00;;;2.65;;
47455;SDS011;33202;48.512;-2.780;2024-03-25T05:36:47;9.70;;;2.50;;
47455;SDS011;33202;48.512;-2.780;2024-03-25T05:39:13;6.53;;;2.42;;
47455;SDS011;33202;48.512;-2.780;2024-03-25T05:41:39;7.40;;;2.28;;
47455;SDS011;33202;48.512;-2.780;2024-03-25T05:44:05;6.85;;;2.30;;
47455;SDS011;33202;48.512;-2.780;2024-03-25T05:46:31;8.70;;;2.50;;
47455;SDS011;33202;48.512;-2.780;2024-03-25T05:48:57;7.25;;;2.45;;
47455;SDS011;33202;48.512;-2.780;2024-03-25T05:51:26;9.38;;;2.40;;
47455;SDS011;33202;48.512;-2.780;2024-03-25T05:53:52;7.90;;;2.95;;
47455;SDS011;33202;48.512;-2.780;2024-03-25T05:56:18;7.28;;;2.25;;
47455;SDS011;33202;48.512;-2.780;2024-03-25T05:58:44;6.68;;;2.22;;
47455;SDS011;33202;48.512;-2.780;2024-03-25T06:01:10;6.88;;;2.30;;
47455;SDS011;33202;48.512;-2.780;2024-03-25T06:03:36;6.47;;;2.20;;
47455;SDS011;33202;48.512;-2.780;2024-03-25T06:06:02;6.50;;;2.50;;
47455;SDS011;33202;48.512;-2.780;2024-03-25T06:08:28;7.63;;;2.58;;
47455;SDS011;33202;48.512;-2.780;2024-03-25T06:10:59;9.38;;;2.70;;
47455;SDS011;33202;48.512;-2.780;2024-03-25T06:13:26;8.15;;;2.67;;
47455;SDS011;33202;48.512;-2.780;2024-03-25T06:15:52;7.32;;;3.00;;
47455;SDS011;33202;48.512;-2.780;2024-03-25T06:18:18;8.27;;;2.70;;
47455;SDS011;33202;48.512;-2.780;2024-03-25T06:20:44;8.27;;;2.45;;
47455;SDS011;33202;48.512;-2.780;2024-03-25T06:23:10;8.20;;;2.13;;
47455;SDS011;33202;48.512;-2.780;2024-03-25T06:25:36;7.97;;;2.20;;
47455;SDS011;33202;48.512;-2.780;2024-03-25T06:28:02;10.88;;;3.90;;
47455;SDS011;33202;48.512;-2.780;2024-03-25T06:30:28;12.27;;;4.60;;
47455;SDS011;33202;48.512;-2.780;2024-03-25T06:33:13;8.63;;;3.13;;
47455;SDS011;33202;48.512;-2.780;2024-03-25T06:35:58;11.05;;;2.95;;
47455;SDS011;33202;48.512;-2.780;2024-03-25T06:38:24;10.77;;;2.75;;
47455;SDS011;33202;48.512;-2.780;2024-03-25T06:40:50;10.25;;;2.65;;
47455;SDS011;33202;48.512;-2.780;2024-03-25T06:43:16;6.57;;;2.53;;
47455;SDS011;33202;48.512;-2.780;2024-03-25T06:45:43;7.00;;;2.92;;
47455;SDS011;33202;48.512;-2.780;2024-03-25T06:48:09;8.48;;;2.90;;
47455;SDS011;33202;48.512;-2.780;2024-03-25T06:50:35;8.30;;;2.95;;
47455;SDS011;33202;48.512;-2.780;2024-03-25T06:53:01;9.45;;;3.22;;
47455;SDS011;33202;48.512;-2.780;2024-03-25T06:55:28;8.45;;;3.00;;
47455;SDS011;33202;48.512;-2.780;2024-03-25T06:57:53;10.05;;;2.88;;
47455;SDS011;33202;48.512;-2.780;2024-03-25T07:00:20;8.90;;;3.70;;
47455;SDS011;33202;48.512;-2.780;2024-03-25T07:02:47;8.57;;;3.25;;
47455;SDS011;33202;48.512;-2.780;2024-03-25T07:05:13;13.98;;;2.95;;
47455;SDS011;33202;48.512;-2.780;2024-03-25T07:07:39;10.23;;;3.22;;
47455;SDS011;33202;48.512;-2.780;2024-03-25T07:10:05;7.90;;;2.75;;
47455;SDS011;33202;48.512;-2.780;2024-03-25T07:12:31;7.25;;;2.90;;
47455;SDS011;33202;48.512;-2.780;2024-03-25T07:14:57;5.93;;;2.75;;
47455;SDS011;33202;48.512;-2.780;2024-03-25T07:17:23;6.00;;;2.55;;
47455;SDS011;33202;48.512;-2.780;2024-03-25T07:19:51;7.90;;;2.80;;
47455;SDS011;33202;48.512;-2.780;2024-03-25T07:22:17;6.93;;;2.75;;
47455;SDS011;33202;48.512;-2.780;2024-03-25T07:24:43;6.85;;;2.60;;
47455;SDS011;33202;48.512;-2.780;2024-03-25T07:27:09;5.93;;;2.95;;
47455;SDS011;33202;48.512;-2.780;2024-03-25T07:29:36;6.07;;;2.90;;
47455;SDS011;33202;48.512;-2.780;2024-03-25T07:32:02;5.57;;;2.63;;
47455;SDS011;33202;48.512;-2.780;2024-03-25T07:34:28;6.25;;;2.35;;
47455;SDS011;33202;48.512;-2.780;2024-03-25T07:36:54;5.10;;;2.13;;
47455;SDS011;33202;48.512;-2.780;2024-03-25T07:39:20;6.25;;;2.55;;
47455;SDS011;33202;48.512;-2.780;2024-03-25T07:41:49;4.63;;;2.33;;
47455;SDS011;33202;48.512;-2.780;2024-03-25T07:44:15;6.15;;;2.75;;
47455;SDS011;33202;48.512;-2.780;2024-03-25T07:46:41;3.58;;;1.92;;
47455;SDS011;33202;48.512;-2.780;2024-03-25T07:49:07;5.38;;;2.45;;
47455;SDS011;33202;48.512;-2.780;2024-03-25T07:51:33;5.25;;;2.65;;
47455;SDS011;33202;48.512;-2.780;2024-03-25T07:54:00;8.70;;;2.78;;
47455;SDS011;33202;48.512;-2.780;2024-03-25T07:56:28;5.22;;;2.47;;
47455;SDS011;33202;48.512;-2.780;2024-03-25T07:58:55;4.15;;;2.00;;
47455;SDS011;33202;48.512;-2.780;2024-03-25T08:01:21;6.28;;;2.42;;
47455;SDS011;33202;48.512;-2.780;2024-03-25T08:03:47;3.90;;;2.17;;
47455;SDS011;33202;48.512;-2.780;2024-03-25T08:06:13;5.70;;;2.00;;
47455;SDS011;33202;48.512;-2.780;2024-03-25T08:08:39;7.53;;;2.70;;
47455;SDS011;33202;48.512;-2.780;2024-03-25T08:11:05;4.78;;;2.22;;
47455;SDS011;33202;48.512;-2.780;2024-03-25T08:13:31;5.88;;;2.33;;
47455;SDS011;33202;48.512;-2.780;2024-03-25T08:15:57;7.60;;;2.70;;
47455;SDS011;33202;48.512;-2.780;2024-03-25T08:18:23;5.63;;;2.35;;
47455;SDS011;33202;48.512;-2.780;2024-03-25T08:20:49;6.18;;;2.30;;
47455;SDS011;33202;48.512;-2.780;2024-03-25T08:23:15;7.95;;;2.15;;
47455;SDS011;33202;48.512;-2.780;2024-03-25T08:25:41;9.57;;;2.15;;
47455;SDS011;33202;48.512;-2.780;2024-03-25T08:28:07;4.82;;;1.88;;
47455;SDS011;33202;48.512;-2.780;2024-03-25T08:30:33;8.10;;;2.10;;
47455;SDS011;33202;48.512;-2.780;2024-03-25T08:33:01;6.57;;;2.00;;
47455;SDS011;33202;48.512;-2.780;2024-03-25T08:35:27;9.13;;;2.25;;
47455;SDS011;33202;48.512;-2.780;2024-03-25T08:37:53;6.85;;;2.08;;
47455;SDS011;33202;48.512;-2.780;2024-03-25T08:40:19;7.30;;;2.25;;
47455;SDS011;33202;48.512;-2.780;2024-03-25T08:42:45;6.05;;;1.80;;
47455;SDS011;33202;48.512;-2.780;2024-03-25T08:45:11;6.00;;;2.15;;
47455;SDS011;33202;48.512;-2.780;2024-03-25T08:47:36;10.93;;;2.40;;
47455;SDS011;33202;48.512;-2.780;2024-03-25T08:50:03;7.13;;;1.88;;
47455;SDS011;33202;48.512;-2.780;2024-03-25T08:52:30;4.60;;;1.90;;
47455;SDS011;33202;48.512;-2.780;2024-03-25T08:54:55;4.28;;;1.98;;
47455;SDS011;33202;48.512;-2.780;2024-03-25T08:57:21;5.13;;;1.83;;
47455;SDS011;33202;48.512;-2.780;2024-03-25T08:59:47;6.53;;;1.90;;
47455;SDS011;33202;48.512;-2.780;2024-03-25T09:02:13;6.72;;;2.10;;
47455;SDS011;33202;48.512;-2.780;2024-03-25T09:04:40;8.13;;;2.35;;
47455;SDS011;33202;48.512;-2.780;2024-03-25T09:07:06;4.97;;;1.90;;
47455;SDS011;33202;48.512;-2.780;2024-03-25T09:09:33;8.15;;;1.80;;
47455;SDS011;33202;48.512;-2.780;2024-03-25T09:12:18;7.15;;;1.95;;
47455;SDS011;33202;48.512;-2.780;2024-03-25T09:14:43;6.78;;;1.77;;
47455;SDS011;33202;48.512;-2.780;2024-03-25T09:17:10;8.30;;;2.38;;
47455;SDS011;33202;48.512;-2.780;2024-03-25T09:19:37;7.90;;;1.95;;
47455;SDS011;33202;48.512;-2.780;2024-03-25T09:22:03;6.22;;;2.25;;
47455;SDS011;33202;48.512;-2.780;2024-03-25T09:24:29;12.57;;;2.17;;
47455;SDS011;33202;48.512;-2.780;2024-03-25T09:26:55;5.78;;;1.77;;
47455;SDS011;33202;48.512;-2.780;2024-03-25T09:29:21;4.25;;;1.40;;
47455;SDS011;33202;48.512;-2.780;2024-03-25T09:31:47;7.28;;;1.75;;
47455;SDS011;33202;48.512;-2.780;2024-03-25T09:34:13;6.93;;;2.25;;
47455;SDS011;33202;48.512;-2.780;2024-03-25T09:36:39;10.93;;;1.77;;
47455;SDS011;33202;48.512;-2.780;2024-03-25T09:39:05;6.90;;;1.60;;
47455;SDS011;33202;48.512;-2.780;2024-03-25T09:41:32;5.20;;;1.50;;
47455;SDS011;33202;48.512;-2.780;2024-03-25T09:44:00;8.20;;;1.80;;
47455;SDS011;33202;48.512;-2.780;2024-03-25T09:46:29;6.88;;;2.08;;
47455;SDS011;33202;48.512;-2.780;2024-03-25T09:48:55;7.55;;;1.67;;
47455;SDS011;33202;48.512;-2.780;2024-03-25T09:51:21;8.15;;;1.75;;
47455;SDS011;33202;48.512;-2.780;2024-03-25T09:53:47;7.18;;;1.90;;
47455;SDS011;33202;48.512;-2.780;2024-03-25T09:56:13;4.82;;;1.38;;
47455;SDS011;33202;48.512;-2.780;2024-03-25T09:58:40;8.10;;;1.73;;
47455;SDS011;33202;48.512;-2.780;2024-03-25T10:01:06;8.20;;;2.10;;
47455;SDS011;33202;48.512;-2.780;2024-03-25T10:03:32;8.10;;;1.95;;
47455;SDS011;33202;48.512;-2.780;2024-03-25T10:05:58;8.20;;;2.03;;
47455;SDS011;33202;48.512;-2.780;2024-03-25T10:08:24;8.43;;;1.52;;
47455;SDS011;33202;48.512;-2.780;2024-03-25T10:10:56;6.45;;;1.73;;
47455;SDS011;33202;48.512;-2.780;2024-03-25T10:13:23;7.32;;;1.60;;
47455;SDS011;33202;48.512;-2.780;2024-03-25T10:15:49;7.97;;;1.83;;
47455;SDS011;33202;48.512;-2.780;2024-03-25T10:18:15;4.60;;;1.52;;
47455;SDS011;33202;48.512;-2.780;2024-03-25T10:20:51;6.90;;;2.03;;
47455;SDS011;33202;48.512;-2.780;2024-03-25T10:23:23;6.53;;;1.80;;
47455;SDS011;33202;48.512;-2.780;2024-03-25T10:25:51;6.43;;;1.60;;
47455;SDS011;33202;48.512;-2.780;2024-03-25T10:28:17;4.95;;;1.90;;
47455;SDS011;33202;48.512;-2.780;2024-03-25T10:30:43;5.53;;;1.90;;
47455;SDS011;33202;48.512;-2.780;2024-03-25T10:33:09;3.53;;;1.42;;
47455;SDS011;33202;48.512;-2.780;2024-03-25T10:35:36;8.10;;;1.77;;
47455;SDS011;33202;48.512;-2.780;2024-03-25T10:38:03;9.17;;;2.43;;
47455;SDS011;33202;48.512;-2.780;2024-03-25T10:43:00;4.97;;;1.30;;
47455;SDS011;33202;48.512;-2.780;2024-03-25T10:45:27;6.45;;;1.70;;
47455;SDS011;33202;48.512;-2.780;2024-03-25T10:47:55;7.38;;;1.85;;
47455;SDS011;33202;48.512;-2.780;2024-03-25T10:50:22;5.65;;;1.50;;
47455;SDS011;33202;48.512;-2.780;2024-03-25T10:52:50;4.28;;;1.38;;
47455;SDS011;33202;48.512;-2.780;2024-03-25T10:55:17;8.32;;;1.92;;
47455;SDS011;33202;48.512;-2.780;2024-03-25T10:57:43;5.88;;;1.42;;
47455;SDS011;33202;48.512;-2.780;2024-03-25T11:00:09;4.07;;;1.35;;
47455;SDS011;33202;48.512;-2.780;2024-03-25T11:02:39;4.93;;;1.20;;
47455;SDS011;33202;48.512;-2.780;2024-03-25T11:05:06;3.70;;;1.35;;
47455;SDS011;33202;48.512;-2.780;2024-03-25T11:07:32;6.55;;;1.58;;
47455;SDS011;33202;48.512;-2.780;2024-03-25T11:10:04;7.53;;;1.42;;
47455;SDS011;33202;48.512;-2.780;2024-03-25T11:12:32;5.00;;;1.75;;
47455;SDS011;33202;48.512;-2.780;2024-03-25T11:14:58;3.50;;;1.40;;
47455;SDS011;33202;48.512;-2.780;2024-03-25T11:17:26;4.13;;;1.45;;
47455;SDS011;33202;48.512;-2.780;2024-03-25T11:19:52;5.93;;;1.40;;
47455;SDS011;33202;48.512;-2.780;2024-03-25T11:22:23;6.00;;;1.85;;
47455;SDS011;33202;48.512;-2.780;2024-03-25T11:24:50;6.07;;;1.60;;
47455;SDS011;33202;48.512;-2.780;2024-03-25T11:29:43;5.93;;;1.80;;
47455;SDS011;33202;48.512;-2.780;2024-03-25T11:32:09;5.25;;;1.70;;
47455;SDS011;33202;48.512;-2.780;2024-03-25T11:34:35;4.68;;;1.42;;
47455;SDS011;33202;48.512;-2.780;2024-03-25T11:37:01;4.45;;;1.20;;
47455;SDS011;33202;48.512;-2.780;2024-03-25T11:39:27;7.95;;;1.83;;
47455;SDS011;33202;48.512;-2.780;2024-03-25T11:41:57;3.55;;;1.40;;
47455;SDS011;33202;48.512;-2.780;2024-03-25T11:44:23;5.80;;;1.45;;
47455;SDS011;33202;48.512;-2.780;2024-03-25T11:46:50;5.10;;;1.02;;
47455;SDS011;33202;48.512;-2.780;2024-03-25T11:49:20;5.88;;;1.42;;
47455;SDS011;33202;48.512;-2.780;2024-03-25T11:51:46;5.93;;;1.40;;
47455;SDS011;33202;48.512;-2.780;2024-03-25T11:54:13;5.88;;;1.70;;
47455;SDS011;33202;48.512;-2.780;2024-03-25T11:56:39;5.28;;;1.10;;
47455;SDS011;33202;48.512;-2.780;2024-03-25T11:59:05;4.63;;;1.30;;
47455;SDS011;33202;48.512;-2.780;2024-03-25T12:01:31;6.53;;;1.92;;
47455;SDS011;33202;48.512;-2.780;2024-03-25T12:03:57;5.88;;;1.80;;
47455;SDS011;33202;48.512;-2.780;2024-03-25T12:06:23;5.55;;;1.30;;
47455;SDS011;33202;48.512;-2.780;2024-03-25T12:08:49;5.95;;;1.55;;
47455;SDS011;33202;48.512;-2.780;2024-03-25T12:11:34;4.03;;;1.27;;
47455;SDS011;33202;48.512;-2.780;2024-03-25T12:14:00;6.47;;;1.90;;
47455;SDS011;33202;48.512;-2.780;2024-03-25T12:16:26;4.57;;;1.25;;
47455;SDS011;33202;48.512;-2.780;2024-03-25T12:18:52;5.97;;;1.60;;
47455;SDS011;33202;48.512;-2.780;2024-03-25T12:21:19;7.63;;;1.65;;
47455;SDS011;33202;48.512;-2.780;2024-03-25T12:23:47;6.87;;;2.00;;
47455;SDS011;33202;48.512;-2.780;2024-03-25T12:26:13;4.13;;;1.85;;
47455;SDS011;33202;48.512;-2.780;2024-03-25T12:28:39;4.47;;;1.45;;
47455;SDS011;33202;48.512;-2.780;2024-03-25T12:31:09;4.18;;;1.45;;
47455;SDS011;33202;48.512;-2.780;2024-03-25T12:33:45;3.83;;;1.50;;
47455;SDS011;33202;48.512;-2.780;2024-03-25T12:36:12;5.50;;;1.60;;
47455;SDS011;33202;48.512;-2.780;2024-03-25T12:38:38;4.40;;;1.60;;
47455;SDS011;33202;48.512;-2.780;2024-03-25T12:41:04;6.63;;;1.70;;
47455;SDS011;33202;48.512;-2.780;2024-03-25T12:43:34;7.55;;;1.88;;
47455;SDS011;33202;48.512;-2.780;2024-03-25T12:46:00;4.18;;;1.58;;
47455;SDS011;33202;48.512;-2.780;2024-03-25T12:48:28;3.80;;;1.30;;
47455;SDS011;33202;48.512;-2.780;2024-03-25T12:50:54;8.30;;;1.90;;
47455;SDS011;33202;48.512;-2.780;2024-03-25T12:53:20;4.07;;;1.30;;
47455;SDS011;33202;48.512;-2.780;2024-03-25T12:55:46;3.83;;;1.25;;
47455;SDS011;33202;48.512;-2.780;2024-03-25T12:58:13;6.72;;;1.60;;
47455;SDS011;33202;48.512;-2.780;2024-03-25T13:00:39;5.40;;;1.25;;
47455;SDS011;33202;48.512;-2.780;2024-03-25T13:03:06;5.37;;;1.43;;
47455;SDS011;33202;48.512;-2.780;2024-03-25T13:05:33;4.28;;;1.20;;
47455;SDS011;33202;48.512;-2.780;2024-03-25T13:07:59;5.03;;;1.58;;
47455;SDS011;33202;48.512;-2.780;2024-03-25T13:10:25;5.97;;;1.67;;
47455;SDS011;33202;48.512;-2.780;2024-03-25T13:12:51;2.90;;;1.10;;
47455;SDS011;33202;48.512;-2.780;2024-03-25T13:15:17;5.30;;;1.33;;
47455;SDS011;33202;48.512;-2.780;2024-03-25T13:17:43;5.82;;;1.33;;
47455;SDS011;33202;48.512;-2.780;2024-03-25T13:20:10;5.95;;;1.80;;
47455;SDS011;33202;48.512;-2.780;2024-03-25T13:22:36;6.20;;;1.52;;
47455;SDS011;33202;48.512;-2.780;2024-03-25T13:25:03;5.93;;;1.70;;
47455;SDS011;33202;48.512;-2.780;2024-03-25T13:27:30;5.50;;;1.80;;
47455;SDS011;33202;48.512;-2.780;2024-03-25T13:29:56;6.95;;;1.70;;
47455;SDS011;33202;48.512;-2.780;2024-03-25T13:32:22;4.88;;;1.50;;
47455;SDS011;33202;48.512;-2.780;2024-03-25T13:34:49;6.60;;;1.75;;
47455;SDS011;33202;48.512;-2.780;2024-03-25T13:37:15;5.43;;;1.52;;
47455;SDS011;33202;48.512;-2.780;2024-03-25T13:39:41;4.78;;;1.55;;
47455;SDS011;33202;48.512;-2.780;2024-03-25T13:42:07;5.43;;;1.48;;
47455;SDS011;33202;48.512;-2.780;2024-03-25T13:44:33;4.97;;;1.35;;
47455;SDS011;33202;48.512;-2.780;2024-03-25T13:46:59;6.85;;;1.77;;
47455;SDS011;33202;48.512;-2.780;2024-03-25T13:49:25;7.03;;;1.60;;
47455;SDS011;33202;48.512;-2.780;2024-03-25T13:51:51;5.45;;;1.70;;
47455;SDS011;33202;48.512;-2.780;2024-03-25T13:54:21;5.13;;;1.55;;
47455;SDS011;33202;48.512;-2.780;2024-03-25T13:56:47;7.80;;;1.73;;
47455;SDS011;33202;48.512;-2.780;2024-03-25T13:59:14;4.53;;;1.83;;
47455;SDS011;33202;48.512;-2.780;2024-03-25T14:01:40;6.53;;;1.77;;
47455;SDS011;33202;48.512;-2.780;2024-03-25T14:04:06;5.67;;;1.80;;
47455;SDS011;33202;48.512;-2.780;2024-03-25T14:06:32;6.78;;;2.40;;
47455;SDS011;33202;48.512;-2.780;2024-03-25T14:08:59;4.22;;;1.60;;
47455;SDS011;33202;48.512;-2.780;2024-03-25T14:11:25;3.65;;;1.70;;
47455;SDS011;33202;48.512;-2.780;2024-03-25T14:13:51;5.30;;;1.40;;
47455;SDS011;33202;48.512;-2.780;2024-03-25T14:16:17;6.25;;;1.48;;
47455;SDS011;33202;48.512;-2.780;2024-03-25T14:18:43;5.78;;;1.42;;
47455;SDS011;33202;48.512;-2.780;2024-03-25T14:21:09;6.32;;;1.20;;
47455;SDS011;33202;48.512;-2.780;2024-03-25T14:23:35;4.07;;;1.40;;
47455;SDS011;33202;48.512;-2.780;2024-03-25T14:26:01;2.55;;;1.33;;
47455;SDS011;33202;48.512;-2.780;2024-03-25T14:28:27;4.22;;;1.33;;
47455;SDS011;33202;48.512;-2.780;2024-03-25T14:30:53;3.63;;;1.50;;
47455;SDS011;33202;48.512;-2.780;2024-03-25T14:33:19;5.25;;;1.17;;
47455;SDS011;33202;48.512;-2.780;2024-03-25T14:35:46;5.17;;;1.53;;
47455;SDS011;33202;48.512;-2.780;2024-03-25T14:38:11;5.20;;;1.40;;